sensor_id;sensor_type;location;lat;lon;timestamp;pressure;altitude;pressure_sealevel;temperature;humidity
13209;BME280;6669;42.678;23.332;2022-11-06T00:00:21;94078.50;;;12.03;100.00
13209;BME280;6669;42.678;23.332;2022-11-06T00:02:49;94087.81;;;11.84;100.00
13209;BME280;6669;42.678;23.332;2022-11-06T00:05:17;94088.09;;;11.61;100.00
13209;BME280;6669;42.678;23.332;2022-11-06T00:08:03;94093.38;;;11.74;100.00
13209;BME280;6669;42.678;23.332;2022-11-06T00:10:31;94088.81;;;11.83;100.00
13209;BME280;6669;42.678;23.332;2022-11-06T00:13:00;94092.75;;;12.07;100.00
13209;BME280;6669;42.678;23.332;2022-11-06T00:15:28;94085.00;;;12.21;100.00
13209;BME280;6669;42.678;23.332;2022-11-06T00:17:56;94087.22;;;12.24;100.00
13209;BME280;6669;42.678;23.332;2022-11-06T00:20:24;94087.00;;;12.25;100.00
13209;BME280;6669;42.678;23.332;2022-11-06T00:22:52;94087.25;;;12.37;100.00
13209;BME280;6669;42.678;23.332;2022-11-06T00:25:20;94079.66;;;12.36;100.00
13209;BME280;6669;42.678;23.332;2022-11-06T00:27:48;94085.47;;;12.45;100.00
13209;BME280;6669;42.678;23.332;2022-11-06T00:30:17;94083.66;;;12.38;100.00
13209;BME280;6669;42.678;23.332;2022-11-06T00:32:46;94088.03;;;12.31;100.00
13209;BME280;6669;42.678;23.332;2022-11-06T00:35:14;94085.78;;;12.21;100.00
13209;BME280;6669;42.678;23.332;2022-11-06T00:37:42;94084.63;;;11.89;100.00
13209;BME280;6669;42.678;23.332;2022-11-06T00:40:11;94075.28;;;11.59;100.00
13209;BME280;6669;42.678;23.332;2022-11-06T00:42:40;94077.28;;;11.64;100.00
13209;BME280;6669;42.678;23.332;2022-11-06T00:45:08;94074.91;;;11.69;100.00
13209;BME280;6669;42.678;23.332;2022-11-06T00:47:39;94074.47;;;11.66;100.00
13209;BME280;6669;42.678;23.332;2022-11-06T00:50:08;94074.53;;;11.72;100.00
13209;BME280;6669;42.678;23.332;2022-11-06T00:52:36;94070.59;;;11.48;100.00
13209;BME280;6669;42.678;23.332;2022-11-06T00:55:04;94072.84;;;11.58;100.00
13209;BME280;6669;42.678;23.332;2022-11-06T00:57:32;94071.66;;;11.60;100.00
13209;BME280;6669;42.678;23.332;2022-11-06T01:00:00;94069.25;;;11.59;100.00
13209;BME280;6669;42.678;23.332;2022-11-06T01:02:29;94078.44;;;11.55;100.00
13209;BME280;6669;42.678;23.332;2022-11-06T01:04:59;94062.38;;;11.44;100.00
13209;BME280;6669;42.678;23.332;2022-11-06T01:07:27;94065.75;;;11.45;100.00
13209;BME280;6669;42.678;23.332;2022-11-06T01:09:55;94067.19;;;11.48;100.00
13209;BME280;6669;42.678;23.332;2022-11-06T01:12:23;94060.59;;;11.52;100.00
13209;BME280;6669;42.678;23.332;2022-11-06T01:14:51;94064.03;;;11.59;100.00
13209;BME280;6669;42.678;23.332;2022-11-06T01:17:19;94061.84;;;11.56;100.00
13209;BME280;6669;42.678;23.332;2022-11-06T01:19:47;94049.19;;;11.53;100.00
13209;BME280;6669;42.678;23.332;2022-11-06T01:22:16;94049.06;;;11.68;100.00
13209;BME280;6669;42.678;23.332;2022-11-06T01:24:44;94045.69;;;11.74;100.00
13209;BME280;6669;42.678;23.332;2022-11-06T01:27:12;94049.72;;;11.76;100.00
13209;BME280;6669;42.678;23.332;2022-11-06T01:29:56;94042.34;;;11.87;100.00
13209;BME280;6669;42.678;23.332;2022-11-06T01:32:23;94041.38;;;11.94;100.00
13209;BME280;6669;42.678;23.332;2022-11-06T01:34:51;94043.63;;;11.98;100.00
13209;BME280;6669;42.678;23.332;2022-11-06T01:37:21;94047.69;;;12.14;100.00
13209;BME280;6669;42.678;23.332;2022-11-06T01:39:48;94042.13;;;12.23;100.00
13209;BME280;6669;42.678;23.332;2022-11-06T01:42:19;94041.53;;;12.35;100.00
13209;BME280;6669;42.678;23.332;2022-11-06T01:45:25;94048.78;;;12.53;100.00
13209;BME280;6669;42.678;23.332;2022-11-06T01:47:55;94054.84;;;12.60;100.00
13209;BME280;6669;42.678;23.332;2022-11-06T01:50:23;94051.03;;;12.69;100.00
13209;BME280;6669;42.678;23.332;2022-11-06T13:35:16;94319.59;;;13.66;100.00
13209;BME280;6669;42.678;23.332;2022-11-06T13:37:51;94323.22;;;13.72;100.00
13209;BME280;6669;42.678;23.332;2022-11-06T13:40:28;94320.19;;;13.62;100.00
13209;BME280;6669;42.678;23.332;2022-11-06T13:43:01;94314.16;;;13.61;100.00
13209;BME280;6669;42.678;23.332;2022-11-06T13:45:44;94321.78;;;13.63;100.00
13209;BME280;6669;42.678;23.332;2022-11-06T13:48:28;94330.25;;;13.71;100.00
13209;BME280;6669;42.678;23.332;2022-11-06T13:51:12;94324.81;;;13.60;100.00
13209;BME280;6669;42.678;23.332;2022-11-06T13:53:49;94324.81;;;13.66;100.00
13209;BME280;6669;42.678;23.332;2022-11-06T13:59:52;94332.69;;;13.86;100.00
13209;BME280;6669;42.678;23.332;2022-11-06T14:05:53;94324.84;;;13.93;100.00
13209;BME280;6669;42.678;23.332;2022-11-06T14:08:27;94327.47;;;14.00;100.00
13209;BME280;6669;42.678;23.332;2022-11-06T14:11:04;94326.47;;;13.94;100.00
13209;BME280;6669;42.678;23.332;2022-11-06T14:13:34;94336.91;;;13.94;100.00
13209;BME280;6669;42.678;23.332;2022-11-06T14:16:21;94338.94;;;13.99;100.00
13209;BME280;6669;42.678;23.332;2022-11-06T14:19:03;94340.16;;;13.96;100.00
13209;BME280;6669;42.678;23.332;2022-11-06T14:21:50;94334.91;;;13.96;100.00
13209;BME280;6669;42.678;23.332;2022-11-06T14:24:40;94342.75;;;13.96;100.00
13209;BME280;6669;42.678;23.332;2022-11-06T14:28:00;94322.41;;;13.78;100.00
13209;BME280;6669;42.678;23.332;2022-11-06T14:30:03;94348.38;;;13.93;100.00
13209;BME280;6669;42.678;23.332;2022-11-06T14:32:46;94355.38;;;13.86;100.00
13209;BME280;6669;42.678;23.332;2022-11-06T14:35:50;94363.00;;;13.67;100.00
13209;BME280;6669;42.678;23.332;2022-11-06T14:38:43;94356.94;;;13.67;100.00
13209;BME280;6669;42.678;23.332;2022-11-06T14:41:54;94361.59;;;13.65;100.00
13209;BME280;6669;42.678;23.332;2022-11-06T14:44:31;94363.78;;;13.61;100.00
13209;BME280;6669;42.678;23.332;2022-11-06T14:47:02;94366.16;;;13.49;100.00
13209;BME280;6669;42.678;23.332;2022-11-06T14:49:41;94368.56;;;13.51;100.00
13209;BME280;6669;42.678;23.332;2022-11-06T14:52:23;94376.59;;;13.49;100.00
13209;BME280;6669;42.678;23.332;2022-11-06T14:55:01;94370.94;;;13.39;100.00
13209;BME280;6669;42.678;23.332;2022-11-06T14:57:43;94372.75;;;13.45;100.00
13209;BME280;6669;42.678;23.332;2022-11-06T15:00:37;94350.97;;;13.24;100.00
13209;BME280;6669;42.678;23.332;2022-11-06T15:03:34;94372.75;;;13.38;100.00
13209;BME280;6669;42.678;23.332;2022-11-06T15:06:07;94383.19;;;13.45;100.00
13209;BME280;6669;42.678;23.332;2022-11-06T15:08:58;94384.25;;;13.51;100.00
13209;BME280;6669;42.678;23.332;2022-11-06T15:11:55;94398.09;;;13.51;100.00
13209;BME280;6669;42.678;23.332;2022-11-06T15:15:04;94349.56;;;13.22;100.00
13209;BME280;6669;42.678;23.332;2022-11-06T15:17:36;94388.66;;;13.50;100.00
13209;BME280;6669;42.678;23.332;2022-11-06T15:20:18;94399.28;;;13.49;100.00
13209;BME280;6669;42.678;23.332;2022-11-06T15:23:15;94404.50;;;13.49;100.00
13209;BME280;6669;42.678;23.332;2022-11-06T15:26:05;94411.38;;;13.56;100.00
13209;BME280;6669;42.678;23.332;2022-11-06T15:28:44;94410.56;;;13.49;100.00
13209;BME280;6669;42.678;23.332;2022-11-06T15:34:07;94412.34;;;13.49;100.00
13209;BME280;6669;42.678;23.332;2022-11-06T15:36:42;94423.22;;;13.52;100.00
13209;BME280;6669;42.678;23.332;2022-11-06T15:39:29;94385.91;;;13.23;100.00
13209;BME280;6669;42.678;23.332;2022-11-06T15:42:00;94423.16;;;13.39;100.00
13209;BME280;6669;42.678;23.332;2022-11-06T15:44:28;94420.56;;;13.39;100.00
13209;BME280;6669;42.678;23.332;2022-11-06T15:47:01;94412.47;;;13.34;100.00
13209;BME280;6669;42.678;23.332;2022-11-06T15:49:29;94401.97;;;13.27;100.00
13209;BME280;6669;42.678;23.332;2022-11-06T15:51:58;94413.53;;;13.39;100.00
13209;BME280;6669;42.678;23.332;2022-11-06T15:54:44;94413.88;;;13.36;100.00
13209;BME280;6669;42.678;23.332;2022-11-06T15:57:18;94382.47;;;13.16;100.00
13209;BME280;6669;42.678;23.332;2022-11-06T16:00:06;94411.22;;;13.30;100.00
13209;BME280;6669;42.678;23.332;2022-11-06T16:02:46;94422.09;;;13.33;100.00
13209;BME280;6669;42.678;23.332;2022-11-06T16:05:15;94429.97;;;13.40;100.00
13209;BME280;6669;42.678;23.332;2022-11-06T16:07:45;94425.53;;;13.34;100.00
13209;BME280;6669;42.678;23.332;2022-11-06T16:10:17;94444.38;;;13.36;100.00
13209;BME280;6669;42.678;23.332;2022-11-06T16:12:46;94432.72;;;13.25;100.00
13209;BME280;6669;42.678;23.332;2022-11-06T16:15:47;94448.00;;;13.35;100.00
13209;BME280;6669;42.678;23.332;2022-11-06T16:18:21;94448.97;;;13.27;100.00
13209;BME280;6669;42.678;23.332;2022-11-06T16:21:08;94449.16;;;13.25;100.00
13209;BME280;6669;42.678;23.332;2022-11-06T16:23:47;94452.56;;;13.26;100.00
13209;BME280;6669;42.678;23.332;2022-11-06T16:26:25;94464.03;;;13.25;100.00
13209;BME280;6669;42.678;23.332;2022-11-06T16:28:59;94453.34;;;13.20;100.00
13209;BME280;6669;42.678;23.332;2022-11-06T16:31:28;94456.56;;;13.22;100.00
13209;BME280;6669;42.678;23.332;2022-11-06T16:34:00;94459.63;;;13.32;100.00
13209;BME280;6669;42.678;23.332;2022-11-06T16:36:49;94443.16;;;13.25;100.00
13209;BME280;6669;42.678;23.332;2022-11-06T16:39:49;94474.28;;;13.27;100.00
13209;BME280;6669;42.678;23.332;2022-11-06T16:42:29;94443.88;;;13.12;100.00
13209;BME280;6669;42.678;23.332;2022-11-06T16:45:25;94453.53;;;13.18;100.00
13209;BME280;6669;42.678;23.332;2022-11-06T16:48:27;94456.78;;;13.27;100.00
13209;BME280;6669;42.678;23.332;2022-11-06T16:51:03;94433.81;;;13.09;100.00
13209;BME280;6669;42.678;23.332;2022-11-06T16:53:57;94468.22;;;13.26;100.00
13209;BME280;6669;42.678;23.332;2022-11-06T16:56:28;94425.84;;;12.89;100.00
13209;BME280;6669;42.678;23.332;2022-11-06T16:59:08;94443.53;;;12.87;100.00
13209;BME280;6669;42.678;23.332;2022-11-06T17:01:45;94478.16;;;13.09;100.00
13209;BME280;6669;42.678;23.332;2022-11-06T17:04:19;94474.38;;;13.12;100.00
13209;BME280;6669;42.678;23.332;2022-11-06T17:06:58;94470.91;;;13.04;100.00
13209;BME280;6669;42.678;23.332;2022-11-06T17:09:29;94470.34;;;13.09;100.00
13209;BME280;6669;42.678;23.332;2022-11-06T17:11:59;94472.94;;;13.09;100.00
13209;BME280;6669;42.678;23.332;2022-11-06T17:14:27;94477.53;;;13.07;100.00
13209;BME280;6669;42.678;23.332;2022-11-06T17:16:59;94477.53;;;13.07;100.00
13209;BME280;6669;42.678;23.332;2022-11-06T17:19:30;94490.34;;;13.02;100.00
13209;BME280;6669;42.678;23.332;2022-11-06T17:22:06;94491.03;;;13.11;100.00
13209;BME280;6669;42.678;23.332;2022-11-06T17:24:36;94497.22;;;13.09;100.00
13209;BME280;6669;42.678;23.332;2022-11-06T17:27:07;94490.22;;;13.10;100.00
13209;BME280;6669;42.678;23.332;2022-11-06T17:29:42;94499.69;;;13.11;100.00
13209;BME280;6669;42.678;23.332;2022-11-06T17:32:12;94502.06;;;13.06;100.00
13209;BME280;6669;42.678;23.332;2022-11-06T17:34:40;94503.59;;;13.00;100.00
13209;BME280;6669;42.678;23.332;2022-11-06T17:37:14;94500.22;;;13.06;100.00
13209;BME280;6669;42.678;23.332;2022-11-06T17:39:52;94514.72;;;13.09;100.00
13209;BME280;6669;42.678;23.332;2022-11-06T17:43:06;94505.84;;;13.03;100.00
13209;BME280;6669;42.678;23.332;2022-11-06T17:46:21;94502.56;;;12.95;100.00
13209;BME280;6669;42.678;23.332;2022-11-06T17:49:29;94504.50;;;12.86;100.00
13209;BME280;6669;42.678;23.332;2022-11-06T17:52:27;94506.47;;;12.84;100.00
13209;BME280;6669;42.678;23.332;2022-11-06T17:54:55;94499.03;;;12.81;100.00
13209;BME280;6669;42.678;23.332;2022-11-06T17:57:25;94506.88;;;12.81;100.00
13209;BME280;6669;42.678;23.332;2022-11-06T17:59:58;94504.81;;;12.76;100.00
13209;BME280;6669;42.678;23.332;2022-11-06T18:02:30;94489.06;;;12.63;100.00
13209;BME280;6669;42.678;23.332;2022-11-06T18:05:19;94506.16;;;12.65;100.00
13209;BME280;6669;42.678;23.332;2022-11-06T18:07:54;94507.69;;;12.59;100.00
13209;BME280;6669;42.678;23.332;2022-11-06T18:10:25;94520.97;;;12.65;100.00
13209;BME280;6669;42.678;23.332;2022-11-06T18:12:56;94485.31;;;12.43;100.00
13209;BME280;6669;42.678;23.332;2022-11-06T18:15:24;94503.84;;;12.55;100.00
13209;BME280;6669;42.678;23.332;2022-11-06T18:17:55;94516.75;;;12.64;100.00
13209;BME280;6669;42.678;23.332;2022-11-06T18:20:26;94518.50;;;12.56;100.00
13209;BME280;6669;42.678;23.332;2022-11-06T18:22:55;94523.78;;;12.63;100.00
13209;BME280;6669;42.678;23.332;2022-11-06T18:25:25;94525.88;;;12.53;100.00
13209;BME280;6669;42.678;23.332;2022-11-06T18:28:00;94523.47;;;12.51;100.00
13209;BME280;6669;42.678;23.332;2022-11-06T18:30:29;94519.06;;;12.52;100.00
13209;BME280;6669;42.678;23.332;2022-11-06T18:33:01;94518.31;;;12.58;100.00
13209;BME280;6669;42.678;23.332;2022-11-06T18:35:32;94514.13;;;12.64;100.00
13209;BME280;6669;42.678;23.332;2022-11-06T18:38:03;94519.53;;;12.62;100.00
13209;BME280;6669;42.678;23.332;2022-11-06T18:40:32;94500.16;;;12.50;100.00
13209;BME280;6669;42.678;23.332;2022-11-06T18:43:20;94518.78;;;12.68;100.00
13209;BME280;6669;42.678;23.332;2022-11-06T18:45:51;94483.06;;;12.40;100.00
13209;BME280;6669;42.678;23.332;2022-11-06T18:48:21;94525.00;;;12.67;100.00
13209;BME280;6669;42.678;23.332;2022-11-06T18:50:52;94497.56;;;12.50;100.00
13209;BME280;6669;42.678;23.332;2022-11-06T18:53:24;94482.56;;;12.30;100.00
13209;BME280;6669;42.678;23.332;2022-11-06T18:56:01;94522.91;;;12.56;100.00
13209;BME280;6669;42.678;23.332;2022-11-06T18:58:44;94530.16;;;12.61;100.00
13209;BME280;6669;42.678;23.332;2022-11-06T19:01:44;94496.09;;;12.40;100.00
13209;BME280;6669;42.678;23.332;2022-11-06T19:04:17;94530.22;;;12.67;100.00
13209;BME280;6669;42.678;23.332;2022-11-06T19:06:46;94470.25;;;12.24;100.00
13209;BME280;6669;42.678;23.332;2022-11-06T19:09:21;94537.00;;;12.62;100.00
13209;BME280;6669;42.678;23.332;2022-11-06T19:11:51;94533.31;;;12.56;100.00
13209;BME280;6669;42.678;23.332;2022-11-06T19:14:22;94517.56;;;12.42;100.00
13209;BME280;6669;42.678;23.332;2022-11-06T19:16:53;94543.34;;;12.52;100.00
13209;BME280;6669;42.678;23.332;2022-11-06T19:19:24;94548.66;;;12.44;100.00
13209;BME280;6669;42.678;23.332;2022-11-06T19:21:55;94547.16;;;12.35;100.00
13209;BME280;6669;42.678;23.332;2022-11-06T19:24:24;94536.31;;;12.31;100.00
13209;BME280;6669;42.678;23.332;2022-11-06T19:26:55;94544.13;;;12.31;100.00
13209;BME280;6669;42.678;23.332;2022-11-06T19:29:26;94537.41;;;12.22;100.00
13209;BME280;6669;42.678;23.332;2022-11-06T19:31:56;94536.16;;;12.18;100.00
13209;BME280;6669;42.678;23.332;2022-11-06T19:34:27;94539.75;;;12.17;100.00
13209;BME280;6669;42.678;23.332;2022-11-06T19:37:11;94542.53;;;12.15;100.00
13209;BME280;6669;42.678;23.332;2022-11-06T19:39:49;94484.31;;;11.71;100.00
13209;BME280;6669;42.678;23.332;2022-11-06T19:42:31;94553.88;;;12.07;100.00
13209;BME280;6669;42.678;23.332;2022-11-06T19:44:59;94541.41;;;12.03;100.00
13209;BME280;6669;42.678;23.332;2022-11-06T19:47:30;94535.13;;;11.97;100.00
13209;BME280;6669;42.678;23.332;2022-11-06T19:49:59;94546.38;;;11.98;100.00
13209;BME280;6669;42.678;23.332;2022-11-06T19:52:34;94550.75;;;11.97;100.00
13209;BME280;6669;42.678;23.332;2022-11-06T19:55:16;94493.75;;;11.42;100.00
13209;BME280;6669;42.678;23.332;2022-11-06T19:57:55;94532.69;;;11.66;100.00
13209;BME280;6669;42.678;23.332;2022-11-06T20:00:24;94552.19;;;11.70;100.00
13209;BME280;6669;42.678;23.332;2022-11-06T20:02:52;94566.38;;;11.67;100.00
13209;BME280;6669;42.678;23.332;2022-11-06T20:05:20;94554.69;;;11.63;100.00
13209;BME280;6669;42.678;23.332;2022-11-06T20:07:50;94569.97;;;11.66;100.00
13209;BME280;6669;42.678;23.332;2022-11-06T20:10:26;94578.75;;;11.65;100.00
13209;BME280;6669;42.678;23.332;2022-11-06T20:12:55;94586.56;;;11.65;100.00
13209;BME280;6669;42.678;23.332;2022-11-06T20:15:23;94588.63;;;11.55;100.00
13209;BME280;6669;42.678;23.332;2022-11-06T20:17:51;94591.06;;;11.56;100.00
13209;BME280;6669;42.678;23.332;2022-11-06T20:20:18;94603.88;;;11.58;100.00
13209;BME280;6669;42.678;23.332;2022-11-06T20:22:47;94585.31;;;11.61;100.00
13209;BME280;6669;42.678;23.332;2022-11-06T20:25:15;94597.78;;;11.66;100.00
13209;BME280;6669;42.678;23.332;2022-11-06T20:27:45;94606.78;;;11.78;100.00
13209;BME280;6669;42.678;23.332;2022-11-06T20:30:13;94606.78;;;11.78;100.00
13209;BME280;6669;42.678;23.332;2022-11-06T20:32:41;94603.44;;;11.84;100.00
13209;BME280;6669;42.678;23.332;2022-11-06T20:35:10;94602.19;;;11.80;100.00
13209;BME280;6669;42.678;23.332;2022-11-06T20:37:42;94609.47;;;11.85;100.00
13209;BME280;6669;42.678;23.332;2022-11-06T20:40:11;94603.91;;;11.88;100.00
13209;BME280;6669;42.678;23.332;2022-11-06T20:42:39;94611.97;;;11.93;100.00
13209;BME280;6669;42.678;23.332;2022-11-06T20:45:09;94611.63;;;11.96;100.00
13209;BME280;6669;42.678;23.332;2022-11-06T20:47:37;94596.16;;;11.94;100.00
13209;BME280;6669;42.678;23.332;2022-11-06T20:50:05;94605.72;;;12.02;100.00
13209;BME280;6669;42.678;23.332;2022-11-06T20:52:33;94619.72;;;12.16;100.00
13209;BME280;6669;42.678;23.332;2022-11-06T20:55:01;94617.94;;;12.17;100.00
13209;BME280;6669;42.678;23.332;2022-11-06T20:57:29;94627.09;;;12.13;100.00
13209;BME280;6669;42.678;23.332;2022-11-06T20:59:57;94621.25;;;12.10;100.00
13209;BME280;6669;42.678;23.332;2022-11-06T21:02:27;94627.72;;;12.15;100.00
13209;BME280;6669;42.678;23.332;2022-11-06T21:04:55;94632.47;;;12.11;100.00
13209;BME280;6669;42.678;23.332;2022-11-06T21:07:23;94631.31;;;12.14;100.00
13209;BME280;6669;42.678;23.332;2022-11-06T21:09:51;94620.81;;;12.07;100.00
13209;BME280;6669;42.678;23.332;2022-11-06T21:12:19;94631.31;;;12.14;100.00
13209;BME280;6669;42.678;23.332;2022-11-06T21:14:47;94643.16;;;12.16;100.00
13209;BME280;6669;42.678;23.332;2022-11-06T21:17:14;94642.56;;;12.14;100.00
13209;BME280;6669;42.678;23.332;2022-11-06T21:19:44;94647.47;;;12.09;100.00
13209;BME280;6669;42.678;23.332;2022-11-06T21:22:12;94652.69;;;12.09;100.00
13209;BME280;6669;42.678;23.332;2022-11-06T21:24:40;94632.81;;;11.93;100.00
13209;BME280;6669;42.678;23.332;2022-11-06T21:27:08;94650.28;;;12.07;100.00
13209;BME280;6669;42.678;23.332;2022-11-06T21:29:36;94657.03;;;12.17;100.00
13209;BME280;6669;42.678;23.332;2022-11-06T21:32:04;94648.84;;;12.20;100.00
13209;BME280;6669;42.678;23.332;2022-11-06T21:34:32;94657.09;;;12.23;100.00
13209;BME280;6669;42.678;23.332;2022-11-06T21:37:01;94653.41;;;12.18;100.00
13209;BME280;6669;42.678;23.332;2022-11-06T21:39:29;94661.22;;;12.18;100.00
13209;BME280;6669;42.678;23.332;2022-11-06T21:42:02;94663.03;;;12.17;100.00
13209;BME280;6669;42.678;23.332;2022-11-06T21:44:30;94662.75;;;12.12;100.00
13209;BME280;6669;42.678;23.332;2022-11-06T21:46:58;94660.88;;;12.06;100.00
13209;BME280;6669;42.678;23.332;2022-11-06T21:49:26;94662.03;;;12.03;100.00
13209;BME280;6669;42.678;23.332;2022-11-06T21:51:54;94664.72;;;12.10;100.00
13209;BME280;6669;42.678;23.332;2022-11-06T21:54:44;94665.81;;;12.16;100.00
13209;BME280;6669;42.678;23.332;2022-11-06T21:57:30;94666.63;;;12.16;100.00
13209;BME280;6669;42.678;23.332;2022-11-06T21:59:58;94662.75;;;12.12;100.00
13209;BME280;6669;42.678;23.332;2022-11-06T22:02:26;94662.94;;;12.10;100.00
13209;BME280;6669;42.678;23.332;2022-11-06T22:04:55;94670.59;;;12.12;100.00
13209;BME280;6669;42.678;23.332;2022-11-06T22:07:22;94667.53;;;12.08;100.00
13209;BME280;6669;42.678;23.332;2022-11-06T22:09:52;94663.03;;;12.02;100.00
13209;BME280;6669;42.678;23.332;2022-11-06T22:12:20;94664.66;;;12.03;100.00
13209;BME280;6669;42.678;23.332;2022-11-06T22:14:48;94647.47;;;11.94;100.00
13209;BME280;6669;42.678;23.332;2022-11-06T22:17:16;94666.50;;;11.94;100.00
13209;BME280;6669;42.678;23.332;2022-11-06T22:19:44;94664.41;;;11.90;100.00
13209;BME280;6669;42.678;23.332;2022-11-06T22:22:12;94661.47;;;11.78;100.00
13209;BME280;6669;42.678;23.332;2022-11-06T22:24:40;94660.53;;;11.71;100.00
13209;BME280;6669;42.678;23.332;2022-11-06T22:27:09;94648.69;;;11.68;100.00
13209;BME280;6669;42.678;23.332;2022-11-06T22:29:37;94650.13;;;11.71;100.00
13209;BME280;6669;42.678;23.332;2022-11-06T22:32:05;94647.63;;;11.63;100.00
13209;BME280;6669;42.678;23.332;2022-11-06T22:34:33;94647.44;;;11.64;100.00
13209;BME280;6669;42.678;23.332;2022-11-06T22:37:01;94652.72;;;11.56;100.00
13209;BME280;6669;42.678;23.332;2022-11-06T22:39:29;94652.38;;;11.59;100.00
13209;BME280;6669;42.678;23.332;2022-11-06T22:41:57;94644.97;;;11.48;100.00
13209;BME280;6669;42.678;23.332;2022-11-06T22:44:27;94655.66;;;11.53;100.00
13209;BME280;6669;42.678;23.332;2022-11-06T22:46:58;94665.56;;;11.57;100.00
13209;BME280;6669;42.678;23.332;2022-11-06T22:49:28;94663.66;;;11.51;100.00
13209;BME280;6669;42.678;23.332;2022-11-06T22:51:56;94652.00;;;11.47;100.00
13209;BME280;6669;42.678;23.332;2022-11-06T22:54:24;94669.84;;;11.50;100.00
13209;BME280;6669;42.678;23.332;2022-11-06T22:56:52;94667.44;;;11.49;100.00
13209;BME280;6669;42.678;23.332;2022-11-06T22:59:20;94666.63;;;11.48;100.00
13209;BME280;6669;42.678;23.332;2022-11-06T23:01:50;94667.66;;;11.39;100.00
13209;BME280;6669;42.678;23.332;2022-11-06T23:04:18;94675.31;;;11.40;100.00
13209;BME280;6669;42.678;23.332;2022-11-06T23:06:46;94671.16;;;11.31;100.00
13209;BME280;6669;42.678;23.332;2022-11-06T23:09:17;94673.66;;;11.24;100.00
13209;BME280;6669;42.678;23.332;2022-11-06T23:11:45;94669.19;;;11.33;100.00
13209;BME280;6669;42.678;23.332;2022-11-06T23:14:13;94664.41;;;11.22;100.00
13209;BME280;6669;42.678;23.332;2022-11-06T23:16:41;94668.72;;;11.29;100.00
13209;BME280;6669;42.678;23.332;2022-11-06T23:19:29;94665.91;;;11.16;100.00
13209;BME280;6669;42.678;23.332;2022-11-06T23:22:01;94670.66;;;11.12;100.00
13209;BME280;6669;42.678;23.332;2022-11-06T23:24:46;94690.06;;;11.25;100.00
13209;BME280;6669;42.678;23.332;2022-11-06T23:27:14;94686.47;;;11.26;100.00
13209;BME280;6669;42.678;23.332;2022-11-06T23:29:42;94683.25;;;11.24;100.00
13209;BME280;6669;42.678;23.332;2022-11-06T23:32:10;94682.25;;;11.25;100.00
13209;BME280;6669;42.678;23.332;2022-11-06T23:34:40;94689.06;;;11.26;100.00
13209;BME280;6669;42.678;23.332;2022-11-06T23:37:08;94665.78;;;11.09;100.00
13209;BME280;6669;42.678;23.332;2022-11-06T23:39:36;94676.19;;;11.09;100.00
13209;BME280;6669;42.678;23.332;2022-11-06T23:42:04;94675.00;;;10.97;100.00
13209;BME280;6669;42.678;23.332;2022-11-06T23:44:32;94681.69;;;10.91;100.00
13209;BME280;6669;42.678;23.332;2022-11-06T23:47:20;94669.47;;;10.69;100.00
13209;BME280;6669;42.678;23.332;2022-11-06T23:49:49;94683.28;;;10.69;100.00
13209;BME280;6669;42.678;23.332;2022-11-06T23:52:18;94674.03;;;10.67;100.00
13209;BME280;6669;42.678;23.332;2022-11-06T23:54:46;94690.44;;;10.67;100.00
13209;BME280;6669;42.678;23.332;2022-11-06T23:57:14;94692.84;;;10.69;100.00
13209;BME280;6669;42.678;23.332;2022-11-06T23:59:42;94695.97;;;10.64;100.00
